TimeEST,TemperatureF,Dew PointF,Humidity,Sea Level PressureIn,VisibilityMPH,Wind Direction,Wind SpeedMPH,Gust SpeedMPH,PrecipitationIn,Events,Conditions,WindDirDegrees,DateUTC
12:14 AM,32.0,17.6,55,29.91,10.0,WNW,11.5,20.7,N/A,,Clear,300,2011-11-17 05:14:00
12:33 AM,32.0,15.8,51,29.90,10.0,WNW,13.8,21.9,N/A,,Clear,300,2011-11-17 05:33:00
1:14 AM,32.0,15.8,51,29.90,10.0,NW,12.7,19.6,N/A,,Clear,310,2011-11-17 06:14:00
1:33 AM,30.2,15.8,55,29.90,10.0,WNW,10.4,19.6,N/A,,Clear,300,2011-11-17 06:33:00
1:54 AM,30.2,15.8,55,29.90,10.0,WNW,10.4,17.3,N/A,,Clear,300,2011-11-17 06:54:00
2:14 AM,30.2,15.8,55,29.90,10.0,NW,9.2,16.1,N/A,,Clear,310,2011-11-17 07:14:00
2:33 AM,30.2,15.8,55,29.90,10.0,NW,10.4,18.4,N/A,,Clear,310,2011-11-17 07:33:00
2:54 AM,30.2,17.6,60,29.89,10.0,WNW,8.1,-,N/A,,Clear,300,2011-11-17 07:54:00
3:14 AM,30.2,17.6,60,29.89,10.0,West,9.2,16.1,N/A,,Clear,280,2011-11-17 08:14:00
3:54 AM,30.2,19.4,64,29.89,10.0,WNW,10.4,16.1,N/A,,Clear,300,2011-11-17 08:54:00
4:13 AM,30.2,19.4,64,29.88,10.0,WNW,8.1,-,N/A,,Clear,300,2011-11-17 09:13:00
4:33 AM,30.2,19.4,64,29.88,10.0,WNW,10.4,-,N/A,,Clear,300,2011-11-17 09:33:00
4:54 AM,30.2,19.4,64,29.88,10.0,WNW,10.4,-,N/A,,Clear,300,2011-11-17 09:54:00
5:13 AM,30.2,19.4,64,29.88,10.0,WNW,10.4,-,N/A,,Clear,300,2011-11-17 10:13:00
5:34 AM,30.2,19.4,64,29.88,10.0,WNW,10.4,17.3,N/A,,Clear,290,2011-11-17 10:34:00
5:54 AM,30.2,17.6,60,29.88,10.0,WNW,12.7,18.4,N/A,,Clear,290,2011-11-17 10:54:00
6:34 AM,30.2,17.6,60,29.87,10.0,NW,13.8,20.7,N/A,,Clear,310,2011-11-17 11:34:00
6:54 AM,30.2,17.6,60,29.87,10.0,WNW,11.5,20.7,N/A,,Clear,300,2011-11-17 11:54:00
7:13 AM,30.2,17.6,60,29.87,10.0,WNW,10.4,17.3,N/A,,Clear,300,2011-11-17 12:13:00
7:34 AM,28.4,19.4,69,29.88,10.0,WNW,9.2,16.1,N/A,,Clear,290,2011-11-17 12:34:00
7:54 AM,28.4,21.2,74,29.88,10.0,WNW,9.2,16.1,N/A,,Clear,300,2011-11-17 12:54:00
8:13 AM,28.4,21.2,74,29.88,10.0,WNW,12.7,19.6,N/A,,Clear,290,2011-11-17 13:13:00
8:34 AM,30.2,21.2,69,29.88,10.0,WNW,10.4,20.7,N/A,,Scattered Clouds,300,2011-11-17 13:34:00
8:53 AM,28.4,21.2,74,29.88,10.0,WNW,11.5,-,N/A,,Scattered Clouds,300,2011-11-17 13:53:00
9:13 AM,30.2,21.2,69,29.88,10.0,WNW,9.2,17.3,N/A,,Clear,300,2011-11-17 14:13:00
9:34 AM,30.2,21.2,69,29.89,10.0,NW,8.1,-,N/A,,Scattered Clouds,310,2011-11-17 14:34:00
9:54 AM,30.2,21.2,69,29.88,10.0,WNW,9.2,-,N/A,,Clear,290,2011-11-17 14:54:00
10:13 AM,30.2,21.2,69,29.88,10.0,West,11.5,-,N/A,,Scattered Clouds,280,2011-11-17 15:13:00
10:34 AM,32.0,21.2,64,29.88,10.0,WNW,9.2,17.3,N/A,,Mostly Cloudy,290,2011-11-17 15:34:00
10:53 AM,32.0,21.2,64,29.88,10.0,WNW,11.5,18.4,N/A,,Mostly Cloudy,290,2011-11-17 15:53:00
11:13 AM,32.0,21.2,64,29.89,10.0,WNW,11.5,19.6,N/A,,Mostly Cloudy,290,2011-11-17 16:13:00
11:34 AM,32.0,21.2,64,29.88,10.0,West,9.2,21.9,N/A,,Scattered Clouds,260,2011-11-17 16:34:00
11:53 AM,32.0,23.0,69,29.88,10.0,West,11.5,20.7,N/A,,Mostly Cloudy,280,2011-11-17 16:53:00
12:14 PM,32.0,23.0,69,29.87,10.0,West,10.4,20.7,N/A,,Mostly Cloudy,280,2011-11-17 17:14:00
12:34 PM,32.0,23.0,69,29.87,10.0,West,8.1,20.7,N/A,,Mostly Cloudy,280,2011-11-17 17:34:00
12:53 PM,32.0,23.0,69,29.87,10.0,West,10.4,21.9,N/A,,Overcast,280,2011-11-17 17:53:00
1:14 PM,32.0,24.8,75,29.87,5.0,West,13.8,20.7,N/A,Snow,Light Snow,280,2011-11-17 18:14:00
1:34 PM,32.0,24.8,75,29.87,7.0,WNW,11.5,24.2,N/A,,Overcast,290,2011-11-17 18:34:00
1:53 PM,32.0,24.8,75,29.87,7.0,WNW,13.8,24.2,N/A,,Overcast,290,2011-11-17 18:53:00
2:14 PM,32.0,23.0,69,29.87,10.0,West,12.7,20.7,N/A,,Overcast,280,2011-11-17 19:14:00
2:34 PM,32.0,23.0,69,29.87,10.0,West,12.7,23.0,N/A,,Overcast,280,2011-11-17 19:34:00
3:14 PM,32.0,26.6,80,29.87,5.0,WNW,16.1,27.6,N/A,Snow,Light Snow,290,2011-11-17 20:14:00
3:34 PM,32.0,26.6,80,29.88,10.0,WNW,16.1,29.9,N/A,,Overcast,300,2011-11-17 20:34:00
3:53 PM,33.8,24.8,70,29.89,10.0,WNW,18.4,33.4,N/A,,Overcast,290,2011-11-17 20:53:00
4:14 PM,33.8,24.8,70,29.90,10.0,WNW,18.4,28.8,N/A,,Overcast,300,2011-11-17 21:14:00
4:33 PM,32.0,24.8,75,29.91,10.0,WNW,16.1,28.8,N/A,,Overcast,300,2011-11-17 21:33:00
4:53 PM,32.0,23.0,69,29.92,10.0,WNW,16.1,25.3,N/A,,Overcast,300,2011-11-17 21:53:00
5:14 PM,32.0,23.0,69,29.93,10.0,WNW,17.3,28.8,N/A,,Overcast,300,2011-11-17 22:14:00
5:34 PM,32.0,23.0,69,29.94,10.0,WNW,17.3,23.0,N/A,,Overcast,300,2011-11-17 22:34:00
5:53 PM,32.0,23.0,69,29.95,10.0,WNW,18.4,25.3,N/A,,Overcast,300,2011-11-17 22:53:00
6:14 PM,32.0,23.0,69,29.96,10.0,WNW,15.0,21.9,N/A,,Overcast,300,2011-11-17 23:14:00
6:33 PM,32.0,21.2,64,29.97,10.0,WNW,13.8,21.9,N/A,,Overcast,300,2011-11-17 23:33:00
6:53 PM,32.0,21.2,64,29.98,10.0,NW,12.7,23.0,N/A,,Overcast,310,2011-11-17 23:53:00
7:14 PM,32.0,23.0,69,29.98,10.0,WNW,13.8,20.7,N/A,,Overcast,290,2011-11-18 00:14:00
7:33 PM,32.0,23.0,69,29.99,10.0,WNW,12.7,18.4,N/A,,Overcast,300,2011-11-18 00:33:00
7:53 PM,32.0,23.0,69,30.00,10.0,WNW,10.4,18.4,N/A,,Overcast,300,2011-11-18 00:53:00
8:14 PM,32.0,21.2,64,30.00,10.0,WNW,11.5,21.9,N/A,,Overcast,290,2011-11-18 01:14:00
8:33 PM,32.0,21.2,64,30.01,10.0,WNW,12.7,24.2,N/A,,Overcast,290,2011-11-18 01:33:00
8:54 PM,32.0,21.2,64,30.02,10.0,WNW,13.8,23.0,N/A,,Overcast,290,2011-11-18 01:54:00
9:13 PM,32.0,21.2,64,30.02,10.0,WNW,16.1,24.2,N/A,,Scattered Clouds,300,2011-11-18 02:13:00
9:33 PM,32.0,21.2,64,30.02,10.0,WNW,15.0,23.0,N/A,,Scattered Clouds,300,2011-11-18 02:33:00
9:54 PM,32.0,19.4,60,30.03,10.0,WNW,11.5,19.6,N/A,,Scattered Clouds,300,2011-11-18 02:54:00
10:13 PM,32.0,19.4,60,30.03,10.0,WNW,11.5,20.7,N/A,,Clear,290,2011-11-18 03:13:00
10:33 PM,32.0,17.6,55,30.03,10.0,WNW,10.4,20.7,N/A,,Clear,300,2011-11-18 03:33:00
11:33 PM,32.0,19.4,60,30.03,10.0,WNW,9.2,20.7,N/A,,Mostly Cloudy,290,2011-11-18 04:33:00
11:54 PM,32.0,19.4,60,30.04,10.0,WNW,9.2,-,N/A,,Overcast,290,2011-11-18 04:54:00